Time;durP1;ratioP1;P1;durP2;ratioP2;P2;SDS_P1;SDS_P2;PMS_P1;PMS_P2;Temp;Humidity;BMP_temperature;BMP_pressure;BME280_temperature;BME280_humidity;BME280_pressure;Samples;Min_cycle;Max_cycle;Signal;HPM_P1;HPM_P2
2021/06/19 00:02:25;;;;;;;18.20;7.37;;;23.60;99.90;;;;;;5035034;28;20510;-58
2021/06/19 00:04:52;;;;;;;21.17;7.90;;;23.50;99.90;;;;;;5034251;28;20904;-58
2021/06/19 00:07:19;;;;;;;20.47;7.50;;;23.50;99.90;;;;;;5035043;28;20459;-57
2021/06/19 00:09:46;;;;;;;13.83;7.63;;;23.50;99.90;;;;;;5034276;28;20445;-59
2021/06/19 00:12:15;;;;;;;24.47;8.10;;;23.60;99.90;;;;;;5034453;28;20803;-58
2021/06/19 00:14:43;;;;;;;18.10;7.30;;;23.60;99.90;;;;;;5034413;28;20477;-58
2021/06/19 00:17:10;;;;;;;14.67;7.23;;;23.60;99.90;;;;;;5025825;28;20488;-58
2021/06/19 00:19:37;;;;;;;22.20;8.20;;;23.50;99.90;;;;;;5031869;28;20865;-58
2021/06/19 00:22:06;;;;;;;18.93;7.80;;;23.20;99.90;;;;;;5034519;28;20502;-58
2021/06/19 00:24:37;;;;;;;14.93;8.07;;;23.00;99.90;;;;;;5034505;28;20468;-58
2021/06/19 00:27:06;;;;;;;17.60;8.17;;;23.00;99.90;;;;;;5034461;28;20950;-57
2021/06/19 00:29:33;;;;;;;16.70;8.30;;;23.00;99.90;;;;;;5034030;28;20456;-58
2021/06/19 00:32:02;;;;;;;15.97;7.40;;;23.10;99.90;;;;;;5027411;28;20902;-58
2021/06/19 00:34:29;;;;;;;13.10;8.00;;;23.10;99.90;;;;;;5034361;28;20981;-59
2021/06/19 00:36:56;;;;;;;14.97;7.80;;;23.30;99.90;;;;;;5034438;28;20448;-58
2021/06/19 00:39:23;;;;;;;15.30;7.50;;;23.30;99.90;;;;;;5034048;28;20457;-59
2021/06/19 00:41:50;;;;;;;18.07;8.27;;;23.30;99.90;;;;;;5033454;28;20456;-58
2021/06/19 00:44:18;;;;;;;11.77;7.97;;;23.20;99.90;;;;;;5031027;28;21015;-58
2021/06/19 00:46:49;;;;;;;19.10;9.20;;;23.00;99.90;;;;;;5014560;28;20503;-58
2021/06/19 00:49:18;;;;;;;22.50;9.70;;;23.10;99.90;;;;;;5028022;28;20449;-58
2021/06/19 00:51:45;;;;;;;18.07;8.40;;;23.30;99.90;;;;;;5033390;28;20471;-58
2021/06/19 00:54:12;;;;;;;15.87;8.17;;;23.30;99.90;;;;;;5033915;28;21016;-58
2021/06/19 00:56:40;;;;;;;16.00;9.00;;;23.30;99.90;;;;;;5034193;28;20900;-58
2021/06/19 00:59:08;;;;;;;16.23;8.00;;;23.30;99.90;;;;;;5033163;28;20449;-58
2021/06/19 01:01:36;;;;;;;19.80;8.67;;;23.30;99.90;;;;;;5031553;28;20477;-58
2021/06/19 01:04:04;;;;;;;16.47;8.33;;;23.00;99.90;;;;;;5033741;28;20463;-59
2021/06/19 01:06:36;;;;;;;14.03;7.60;;;23.00;99.90;;;;;;5033788;28;20876;-58
2021/06/19 01:09:07;;;;;;;23.20;9.10;;;23.10;99.90;;;;;;5032747;28;20449;-59
2021/06/19 01:11:36;;;;;;;14.23;8.73;;;22.90;99.90;;;;;;5032674;28;20502;-58
2021/06/19 01:14:04;;;;;;;19.20;9.20;;;22.90;99.90;;;;;;5033495;28;20449;-58
2021/06/19 01:16:35;;;;;;;21.73;8.77;;;22.90;99.90;;;;;;5030577;28;20449;-59
2021/06/19 01:19:04;;;;;;;14.87;8.10;;;22.90;99.90;;;;;;5033122;28;20472;-59
2021/06/19 01:21:31;;;;;;;17.00;7.93;;;22.80;99.90;;;;;;5033534;28;20488;-58
2021/06/19 01:24:00;;;;;;;23.60;9.10;;;22.90;99.90;;;;;;5033431;28;20946;-58
2021/06/19 01:26:31;;;;;;;17.23;9.10;;;22.90;99.90;;;;;;5033463;28;20452;-59
2021/06/19 01:28:59;;;;;;;17.10;8.60;;;23.00;99.90;;;;;;5032507;28;20461;-59
2021/06/19 01:31:31;;;;;;;21.50;9.00;;;23.00;99.90;;;;;;5032475;28;20973;-59
2021/06/19 01:33:58;;;;;;;15.83;9.00;;;23.00;99.90;;;;;;5033237;28;20927;-58
2021/06/19 01:36:26;;;;;;;20.17;8.17;;;22.90;99.90;;;;;;5028803;28;21065;-59
2021/06/19 01:38:55;;;;;;;17.40;8.90;;;23.00;99.90;;;;;;5022760;28;20453;-58
2021/06/19 01:41:23;;;;;;;19.17;8.60;;;23.00;99.90;;;;;;5032708;28;20480;-58
2021/06/19 01:44:00;;;;;;;16.10;9.30;;;23.10;99.90;;;;;;5033105;28;20871;-58
2021/06/19 01:46:27;;;;;;;18.00;8.17;;;23.00;99.90;;;;;;5032431;28;20514;-58
2021/06/19 01:48:54;;;;;;;14.53;8.17;;;23.00;99.90;;;;;;5033159;28;20451;-59
2021/06/19 01:51:21;;;;;;;20.70;8.97;;;22.90;99.90;;;;;;5030762;28;20507;-58
2021/06/19 01:53:48;;;;;;;15.77;7.80;;;22.80;99.90;;;;;;5032835;28;20938;-58
2021/06/19 01:56:16;;;;;;;20.60;9.80;;;22.70;99.90;;;;;;5032556;28;20476;-57
2021/06/19 01:58:43;;;;;;;12.37;7.80;;;22.70;99.90;;;;;;5032743;28;20502;-58
2021/06/19 02:01:14;;;;;;;20.93;8.50;;;22.60;99.90;;;;;;5032381;28;20507;-58
2021/06/19 02:03:41;;;;;;;15.43;8.40;;;22.50;99.90;;;;;;5031928;28;20973;-59
2021/06/19 02:06:09;;;;;;;17.80;8.13;;;22.50;99.90;;;;;;5020160;28;20495;-58
2021/06/19 02:08:37;;;;;;;18.40;8.90;;;22.50;99.90;;;;;;5032539;28;20506;-59
2021/06/19 02:11:05;;;;;;;16.37;8.67;;;22.50;99.90;;;;;;5032322;28;20976;-58
2021/06/19 02:13:35;;;;;;;20.77;8.70;;;22.50;99.90;;;;;;5032216;28;20507;-59
2021/06/19 02:16:02;;;;;;;18.03;8.93;;;22.50;99.90;;;;;;5032289;28;20578;-59
2021/06/19 02:18:30;;;;;;;22.03;11.97;;;22.40;99.90;;;;;;5031946;28;20502;-58
2021/06/19 02:20:57;;;;;;;20.90;10.50;;;22.40;99.90;;;;;;5032134;28;20507;-58
2021/06/19 02:23:26;;;;;;;16.70;9.40;;;22.30;99.90;;;;;;5032428;28;20444;-58
2021/06/19 02:25:54;;;;;;;16.17;9.50;;;22.30;99.90;;;;;;5030341;28;20468;-59
2021/06/19 02:28:22;;;;;;;12.10;8.37;;;22.30;99.90;;;;;;5032540;28;20879;-58
2021/06/19 02:30:53;;;;;;;14.50;8.93;;;22.30;99.90;;;;;;5031912;28;20441;-59
2021/06/19 02:33:20;;;;;;;17.53;9.50;;;22.40;99.90;;;;;;5029950;28;20453;-58
2021/06/19 02:35:50;;;;;;;18.40;11.10;;;22.40;99.90;;;;;;5015198;28;21013;-58
2021/06/19 02:38:17;;;;;;;20.30;9.47;;;22.30;99.90;;;;;;5031315;28;21005;-58
2021/06/19 02:40:46;;;;;;;17.80;9.60;;;22.20;99.90;;;;;;5026469;28;20628;-58
2021/06/19 02:43:14;;;;;;;20.97;8.70;;;22.20;99.90;;;;;;5012044;28;20500;-58
2021/06/19 02:45:41;;;;;;;21.37;9.73;;;22.20;99.90;;;;;;5034952;22;20550;-53
2021/06/19 02:48:09;;;;;;;16.77;9.83;;;22.10;99.90;;;;;;5029471;28;20528;-53
2021/06/19 02:50:38;;;;;;;20.00;9.40;;;22.10;99.90;;;;;;5020390;28;20487;-53
2021/06/19 02:53:08;;;;;;;20.60;9.73;;;22.00;99.90;;;;;;5031269;28;20523;-53
2021/06/19 02:55:36;;;;;;;17.03;8.40;;;22.00;99.90;;;;;;5031078;28;20468;-53
2021/06/19 02:58:05;;;;;;;21.80;9.83;;;22.10;99.90;;;;;;5012045;28;20939;-53
2021/06/19 03:00:32;;;;;;;23.43;9.30;;;22.10;99.90;;;;;;5019342;28;20476;-52
2021/06/19 03:03:00;;;;;;;19.30;9.23;;;22.00;99.90;;;;;;5031353;28;20449;-52
2021/06/19 03:05:28;;;;;;;17.00;9.67;;;21.90;99.90;;;;;;5031606;28;20832;-53
2021/06/19 03:07:56;;;;;;;21.00;9.20;;;21.90;99.90;;;;;;5031635;28;20507;-53
2021/06/19 03:10:27;;;;;;;15.20;9.07;;;21.90;99.90;;;;;;5031533;28;20506;-53
2021/06/19 03:12:54;;;;;;;20.70;9.43;;;21.90;99.90;;;;;;5030985;28;20947;-53
2021/06/19 03:15:21;;;;;;;19.50;9.07;;;21.90;99.90;;;;;;5031635;28;20468;-53
2021/06/19 03:17:49;;;;;;;23.30;9.70;;;21.90;99.90;;;;;;5031021;28;20966;-53
2021/06/19 03:20:17;;;;;;;18.57;9.67;;;22.00;99.90;;;;;;5031034;28;20456;-52
2021/06/19 03:22:46;;;;;;;18.87;9.73;;;22.10;99.90;;;;;;5031271;28;20805;-53
2021/06/19 03:25:19;;;;;;;22.73;10.10;;;22.10;99.90;;;;;;5031361;28;20531;-53
2021/06/19 03:27:48;;;;;;;21.40;9.53;;;22.10;99.90;;;;;;5031159;28;20459;-53
2021/06/19 03:30:17;;;;;;;19.07;10.03;;;22.10;99.90;;;;;;5031215;28;20506;-53
2021/06/19 03:32:44;;;;;;;17.93;9.43;;;22.10;99.90;;;;;;5031526;28;20452;-53
2021/06/19 03:35:11;;;;;;;20.70;10.30;;;22.10;99.90;;;;;;5035294;28;20534;-53
2021/06/19 03:37:39;;;;;;;19.67;10.30;;;21.90;99.90;;;;;;5035255;28;20905;-53
2021/06/19 03:40:09;;;;;;;26.07;9.30;;;21.90;99.90;;;;;;5035287;28;20457;-53
2021/06/19 03:42:36;;;;;;;21.97;10.53;;;21.80;99.90;;;;;;5035049;28;20488;-52
2021/06/19 03:45:05;;;;;;;19.77;10.33;;;21.80;99.90;;;;;;5035025;28;20495;-53
2021/06/19 03:47:32;;;;;;;13.60;9.37;;;21.70;99.90;;;;;;5034323;28;20457;-52
2021/06/19 03:49:59;;;;;;;23.43;9.70;;;21.70;99.90;;;;;;5016361;28;20453;-53
2021/06/19 03:52:26;;;;;;;20.77;9.53;;;21.80;99.90;;;;;;5035048;28;20494;-53
2021/06/19 03:54:53;;;;;;;23.13;9.17;;;21.80;99.90;;;;;;5035123;28;20495;-53
2021/06/19 03:57:25;;;;;;;20.17;10.63;;;21.90;99.90;;;;;;5028760;28;20456;-53
2021/06/19 03:59:53;;;;;;;21.67;10.67;;;21.90;99.90;;;;;;5034630;28;20453;-53
2021/06/19 04:02:21;;;;;;;21.23;10.30;;;21.90;99.90;;;;;;5034349;28;20487;-53
2021/06/19 04:04:50;;;;;;;20.90;11.27;;;22.00;99.90;;;;;;5034475;28;20475;-52
2021/06/19 04:07:17;;;;;;;18.60;11.13;;;22.00;99.90;;;;;;5034336;28;20448;-52
2021/06/19 04:09:45;;;;;;;16.43;10.27;;;22.10;99.90;;;;;;5033589;28;20463;-53
2021/06/19 04:12:13;;;;;;;17.60;9.90;;;22.20;99.90;;;;;;5034063;28;20532;-53
2021/06/19 04:14:40;;;;;;;18.30;11.17;;;22.30;99.90;;;;;;5034713;28;20457;-53
2021/06/19 04:17:08;;;;;;;16.47;10.10;;;22.40;99.90;;;;;;5033458;28;20456;-53
2021/06/19 04:19:37;;;;;;;22.40;11.30;;;22.40;99.90;;;;;;5031839;28;20544;-53
2021/06/19 04:22:05;;;;;;;15.53;10.00;;;22.50;99.90;;;;;;5033469;28;20213;-53
2021/06/19 04:24:32;;;;;;;19.47;11.43;;;22.60;99.90;;;;;;5034181;28;20831;-53
2021/06/19 04:27:00;;;;;;;16.87;9.30;;;22.80;99.90;;;;;;5033923;28;20491;-53
2021/06/19 04:29:29;;;;;;;18.87;10.20;;;22.80;99.90;;;;;;5033161;28;20875;-52
2021/06/19 04:31:57;;;;;;;15.57;8.70;;;22.90;99.90;;;;;;5032633;28;20535;-53
2021/06/19 04:34:24;;;;;;;22.03;9.60;;;22.90;99.90;;;;;;5033867;28;20449;-53
2021/06/19 04:36:53;;;;;;;23.80;9.60;;;22.90;99.90;;;;;;5033543;28;20472;-53
2021/06/19 04:39:20;;;;;;;18.00;10.00;;;22.90;99.90;;;;;;5029464;28;20522;-53
2021/06/19 04:41:53;;;;;;;14.33;8.57;;;22.80;99.90;;;;;;5025662;28;20489;-53
2021/06/19 04:44:40;;;;;;;18.27;9.67;;;22.90;99.90;;;;;;5026823;28;20476;-54
2021/06/19 04:47:07;;;;;;;19.90;9.60;;;22.90;99.90;;;;;;5033158;28;20839;-54
2021/06/19 04:49:34;;;;;;;17.13;9.07;;;23.00;99.90;;;;;;5033958;28;20535;-53
2021/06/19 04:52:02;;;;;;;26.50;9.80;;;23.00;99.90;;;;;;5032026;28;20954;-53
2021/06/19 04:54:36;;;;;;;18.10;9.60;;;23.10;99.90;;;;;;5033936;28;20535;-54
2021/06/19 04:57:04;;;;;;;27.77;10.30;;;23.10;99.90;;;;;;5033760;28;20452;-54
2021/06/19 04:59:32;;;;;;;19.43;9.40;;;23.00;99.90;;;;;;5033990;28;20452;-55
2021/06/19 05:01:59;;;;;;;22.53;10.20;;;22.90;99.90;;;;;;5033609;28;20484;-53
2021/06/19 05:04:26;;;;;;;23.63;8.33;;;22.90;99.90;;;;;;5033748;28;20448;-52
2021/06/19 05:06:53;;;;;;;17.57;9.20;;;22.90;99.90;;;;;;5033929;28;20469;-54
2021/06/19 05:09:22;;;;;;;19.73;9.70;;;22.90;99.90;;;;;;5033723;28;20460;-54
2021/06/19 05:11:49;;;;;;;17.93;9.47;;;23.00;99.90;;;;;;5033438;28;20451;-54
2021/06/19 05:14:16;;;;;;;28.30;9.80;;;23.30;99.90;;;;;;5033075;28;20996;-54
2021/06/19 05:16:45;;;;;;;17.77;10.27;;;23.60;99.90;;;;;;5031136;28;20480;-54
2021/06/19 05:19:12;;;;;;;18.13;9.53;;;23.80;99.90;;;;;;5033533;28;20900;-53
2021/06/19 05:21:39;;;;;;;21.10;10.30;;;24.10;99.90;;;;;;5033146;28;20862;-54
2021/06/19 05:24:08;;;;;;;19.53;9.50;;;24.50;99.90;;;;;;5033206;28;20958;-54
2021/06/19 05:26:37;;;;;;;21.57;10.30;;;24.80;99.90;;;;;;5032777;28;20564;-54
2021/06/19 05:29:04;;;;;;;24.43;9.43;;;25.00;99.90;;;;;;5033404;28;20477;-54
2021/06/19 05:31:31;;;;;;;15.93;9.10;;;25.10;99.90;;;;;;5031788;28;20955;-53
2021/06/19 05:33:58;;;;;;;19.57;9.33;;;25.20;99.90;;;;;;5032901;28;21008;-54
2021/06/19 05:36:25;;;;;;;18.80;9.10;;;25.30;99.90;;;;;;5033282;28;20472;-55
2021/06/19 05:38:53;;;;;;;18.97;10.27;;;25.40;99.90;;;;;;5016055;28;20504;-54
2021/06/19 05:41:20;;;;;;;16.67;10.07;;;25.50;99.90;;;;;;5013107;28;20481;-55
2021/06/19 05:43:49;;;;;;;16.17;9.10;;;25.50;99.90;;;;;;5014751;28;20461;-54
2021/06/19 05:46:16;;;;;;;16.20;9.40;;;25.70;99.90;;;;;;5029525;28;20500;-53
2021/06/19 05:48:44;;;;;;;16.73;9.10;;;26.10;99.90;;;;;;5037054;28;20449;-53
2021/06/19 05:51:11;;;;;;;17.23;9.60;;;26.40;99.90;;;;;;5030823;28;20465;-54
2021/06/19 05:53:38;;;;;;;19.77;10.10;;;26.50;99.90;;;;;;5031842;28;20436;-53
2021/06/19 05:56:05;;;;;;;19.13;10.40;;;26.70;99.90;;;;;;5030911;28;20890;-53
2021/06/19 05:58:32;;;;;;;16.80;9.70;;;26.70;99.90;;;;;;5031712;28;20440;-55
2021/06/19 06:01:00;;;;;;;19.03;9.50;;;26.90;99.90;;;;;;5031246;28;20452;-55
2021/06/19 06:03:27;;;;;;;13.93;8.10;;;26.80;99.90;;;;;;5032415;28;20445;-54
2021/06/19 06:05:55;;;;;;;18.40;9.13;;;26.70;99.90;;;;;;5032141;28;20472;-54
2021/06/19 06:08:22;;;;;;;21.73;9.70;;;26.90;99.90;;;;;;5032454;28;20459;-53
2021/06/19 06:10:49;;;;;;;15.53;9.03;;;26.90;99.90;;;;;;5032258;28;20444;-53
2021/06/19 06:13:16;;;;;;;22.43;9.27;;;27.10;99.90;;;;;;5031405;28;20878;-54
2021/06/19 06:15:43;;;;;;;22.80;10.23;;;27.30;99.90;;;;;;5030423;28;20526;-54
2021/06/19 06:18:11;;;;;;;19.10;8.73;;;27.30;99.90;;;;;;5031129;28;20452;-53
2021/06/19 06:20:38;;;;;;;17.30;8.50;;;27.30;99.90;;;;;;5029907;28;20474;-53
2021/06/19 06:23:05;;;;;;;23.20;10.10;;;27.10;99.90;;;;;;5029753;28;20484;-53
2021/06/19 06:25:32;;;;;;;16.00;9.27;;;27.30;99.90;;;;;;5030730;28;20492;-53
2021/06/19 06:27:59;;;;;;;15.60;8.83;;;27.70;99.90;;;;;;5031200;28;20543;-55
2021/06/19 06:30:26;;;;;;;20.90;9.30;;;28.10;99.90;;;;;;5031571;28;20455;-54
2021/06/19 06:32:53;;;;;;;19.57;7.93;;;28.40;99.90;;;;;;5031404;28;20510;-54
2021/06/19 06:35:22;;;;;;;20.10;10.10;;;29.00;99.90;;;;;;5032006;28;20476;-55
2021/06/19 06:37:49;;;;;;;15.13;10.50;;;29.10;99.90;;;;;;5031591;28;20460;-53
2021/06/19 06:40:18;;;;;;;19.50;9.97;;;29.00;99.90;;;;;;5031049;28;20503;-54
2021/06/19 06:42:45;;;;;;;12.93;9.50;;;28.80;99.90;;;;;;5031683;28;20492;-55
2021/06/19 06:45:14;;;;;;;23.70;9.93;;;28.70;99.90;;;;;;5030794;28;20993;-54
2021/06/19 06:47:42;;;;;;;12.90;9.37;;;28.70;99.90;;;;;;5030839;28;20460;-54
2021/06/19 06:50:10;;;;;;;15.60;9.00;;;28.90;99.90;;;;;;5030482;28;20869;-55
2021/06/19 06:52:39;;;;;;;20.80;10.20;;;28.90;99.90;;;;;;5031119;28;20449;-56
2021/06/19 06:55:09;;;;;;;14.93;9.63;;;29.10;99.90;;;;;;5031306;28;20997;-55
2021/06/19 06:57:36;;;;;;;19.63;9.87;;;29.30;99.90;;;;;;5030905;28;20453;-54
2021/06/19 07:00:05;;;;;;;15.87;9.70;;;29.30;99.90;;;;;;5031842;28;20453;-53
2021/06/19 07:02:32;;;;;;;16.87;10.70;;;29.00;99.90;;;;;;5030607;28;20483;-54
2021/06/19 07:05:00;;;;;;;16.33;10.70;;;28.80;99.90;;;;;;5031663;28;20468;-53
2021/06/19 07:07:27;;;;;;;14.80;10.40;;;29.10;99.90;;;;;;5030662;28;20448;-55
2021/06/19 07:09:55;;;;;;;22.43;10.00;;;29.10;99.90;;;;;;5031520;28;20985;-55
2021/06/19 07:12:22;;;;;;;14.50;10.53;;;29.20;99.90;;;;;;5031044;28;20445;-54
2021/06/19 07:14:49;;;;;;;17.20;9.80;;;28.90;99.90;;;;;;5031556;28;20457;-54
2021/06/19 07:17:16;;;;;;;17.37;10.40;;;29.00;99.90;;;;;;5031137;28;20448;-53
2021/06/19 07:19:43;;;;;;;17.20;10.03;;;29.30;99.90;;;;;;5031001;28;20449;-54
2021/06/19 07:22:10;;;;;;;21.00;10.80;;;29.30;99.90;;;;;;5030497;28;20480;-56
2021/06/19 07:24:37;;;;;;;20.80;10.47;;;29.60;99.90;;;;;;5030473;28;20869;-55
2021/06/19 07:27:07;;;;;;;13.70;9.13;;;29.40;99.90;;;;;;5030653;28;20453;-55
2021/06/19 07:29:34;;;;;;;19.60;10.00;;;29.50;99.90;;;;;;5031402;28;20460;-55
2021/06/19 07:32:02;;;;;;;17.67;9.83;;;29.40;99.90;;;;;;5031023;28;20500;-54
2021/06/19 07:34:29;;;;;;;16.23;10.13;;;29.40;99.90;;;;;;5030867;28;20448;-57
2021/06/19 07:36:56;;;;;;;18.60;9.33;;;29.70;99.90;;;;;;5031540;28;20481;-54
2021/06/19 07:39:24;;;;;;;13.83;9.70;;;29.80;99.90;;;;;;5024858;28;20456;-55
2021/06/19 07:41:51;;;;;;;16.20;10.13;;;30.10;99.90;;;;;;5030341;28;21175;-55
2021/06/19 07:44:19;;;;;;;18.87;9.97;;;30.30;99.90;;;;;;5030922;28;20543;-55
2021/06/19 07:46:49;;;;;;;14.63;9.50;;;30.50;99.90;;;;;;5030916;28;20489;-54
2021/06/19 07:52:38;;;;;;;14.30;10.00;;;30.80;99.90;;;;;;5030885;28;20427;-55
2021/06/19 07:55:07;;;;;;;28.17;10.07;;;30.90;99.90;;;;;;5031283;28;20469;-57
2021/06/19 07:57:33;;;;;;;20.80;9.10;;;31.00;99.90;;;;;;5030665;28;21112;-56
2021/06/19 08:00:02;;;;;;;17.23;9.43;;;31.20;99.90;;;;;;5031233;28;20449;-56
2021/06/19 08:02:29;;;;;;;16.63;10.47;;;31.30;99.90;;;;;;5030747;28;20484;-55
2021/06/19 08:04:56;;;;;;;20.30;11.17;;;31.40;99.90;;;;;;5030235;28;20480;-54
2021/06/19 08:07:23;;;;;;;16.87;9.60;;;31.10;99.90;;;;;;5030977;28;20456;-54
2021/06/19 08:09:50;;;;;;;16.30;9.10;;;31.00;99.90;;;;;;5031039;28;21000;-55
2021/06/19 08:12:17;;;;;;;17.37;9.80;;;30.80;99.90;;;;;;5030599;28;20452;-54
2021/06/19 08:14:44;;;;;;;12.17;9.37;;;30.80;99.90;;;;;;5031173;28;20522;-56
2021/06/19 08:17:16;;;;;;;19.03;10.23;;;30.50;99.90;;;;;;5031158;28;20457;-55
2021/06/19 08:19:45;;;;;;;14.63;9.77;;;30.70;99.90;;;;;;5033091;28;20452;-55
2021/06/19 08:22:12;;;;;;;17.00;9.80;;;30.70;99.90;;;;;;5032831;28;20900;-56
2021/06/19 08:24:40;;;;;;;17.73;9.40;;;30.60;99.90;;;;;;5034553;28;20523;-55
2021/06/19 08:27:08;;;;;;;16.20;10.03;;;30.90;99.90;;;;;;5034527;28;20447;-55
2021/06/19 08:29:35;;;;;;;22.50;10.63;;;31.10;99.90;;;;;;5034621;28;20449;-55
2021/06/19 08:32:02;;;;;;;17.70;10.50;;;31.70;99.90;;;;;;5033772;28;20456;-55
2021/06/19 08:34:30;;;;;;;15.90;9.80;;;32.10;99.90;;;;;;5034401;28;20452;-56
2021/06/19 08:36:57;;;;;;;15.63;9.80;;;31.90;99.90;;;;;;5034290;28;21069;-55
2021/06/19 08:39:24;;;;;;;15.97;8.43;;;32.10;99.00;;;;;;5034293;28;20460;-57
2021/06/19 08:41:55;;;;;;;20.60;9.20;;;32.30;99.00;;;;;;5033766;28;20522;-56
2021/06/19 08:44:23;;;;;;;14.90;8.40;;;32.50;98.90;;;;;;5034381;28;20495;-56
2021/06/19 08:46:51;;;;;;;20.80;9.13;;;32.60;99.20;;;;;;5056149;22;20492;-54
2021/06/19 08:49:18;;;;;;;13.73;9.80;;;32.90;96.90;;;;;;5033695;28;20488;-55
2021/06/19 08:51:47;;;;;;;16.40;10.50;;;32.70;97.10;;;;;;5033315;28;20448;-55
2021/06/19 08:54:14;;;;;;;13.27;10.07;;;32.50;97.60;;;;;;5033713;28;20444;-54
2021/06/19 08:56:45;;;;;;;16.60;9.20;;;32.80;97.90;;;;;;5033689;28;20521;-55
2021/06/19 08:59:12;;;;;;;12.73;9.07;;;32.70;97.00;;;;;;5033610;28;20488;-54
2021/06/19 09:01:40;;;;;;;17.67;9.50;;;33.00;98.30;;;;;;5032919;28;20444;-56
2021/06/19 09:04:08;;;;;;;11.37;9.20;;;33.40;94.90;;;;;;5033374;28;20666;-54
2021/06/19 09:06:38;;;;;;;14.10;9.47;;;33.90;96.00;;;;;;5033407;28;20526;-55
2021/06/19 09:09:09;;;;;;;13.53;8.70;;;34.30;96.90;;;;;;5033457;28;20448;-55
2021/06/19 09:11:37;;;;;;;18.13;8.93;;;34.20;93.40;;;;;;5032980;28;20821;-55
2021/06/19 09:14:06;;;;;;;20.00;8.77;;;34.20;91.50;;;;;;5013359;28;20520;-54
2021/06/19 09:16:34;;;;;;;16.10;8.80;;;34.00;92.90;;;;;;5013334;28;20470;-56
2021/06/19 09:19:01;;;;;;;13.27;8.10;;;34.10;94.00;;;;;;5013542;28;20500;-55
2021/06/19 09:21:30;;;;;;;12.93;9.33;;;34.00;92.70;;;;;;5013024;28;20519;-55
2021/06/19 09:23:57;;;;;;;14.40;8.40;;;34.30;91.00;;;;;;5031917;28;21075;-56
2021/06/19 09:26:30;;;;;;;14.00;8.93;;;34.60;92.00;;;;;;5032985;28;20867;-55
2021/06/19 09:29:09;;;;;;;20.63;9.23;;;34.70;90.20;;;;;;5033164;28;20860;-56
2021/06/19 09:31:47;;;;;;;15.47;9.80;;;35.00;91.40;;;;;;5032072;28;20936;-55
2021/06/19 09:34:16;;;;;;;15.33;10.17;;;35.10;92.10;;;;;;5013406;28;20449;-57
2021/06/19 09:36:46;;;;;;;20.70;9.70;;;35.50;93.00;;;;;;5013063;28;20469;-56
2021/06/19 09:39:14;;;;;;;16.73;9.80;;;35.10;89.50;;;;;;5013005;28;20504;-55
2021/06/19 09:41:44;;;;;;;18.07;9.47;;;35.20;86.80;;;;;;5012936;28;20507;-56
2021/06/19 09:44:12;;;;;;;16.47;9.17;;;35.40;86.50;;;;;;5020122;28;20989;-54
2021/06/19 09:46:39;;;;;;;15.97;9.37;;;35.50;91.40;;;;;;5032385;28;20981;-54
2021/06/19 09:49:15;;;;;;;15.77;9.13;;;35.70;91.30;;;;;;5032642;28;20453;-55
2021/06/19 09:51:47;;;;;;;11.03;8.93;;;35.10;87.60;;;;;;5031983;28;20946;-56
2021/06/19 09:54:15;;;;;;;15.53;10.10;;;35.10;87.50;;;;;;5031598;28;20476;-55
2021/06/19 09:56:51;;;;;;;16.80;12.00;;;35.20;88.30;;;;;;5032577;28;20476;-56
2021/06/19 09:59:26;;;;;;;12.57;10.90;;;35.10;87.70;;;;;;5032730;28;20574;-54
2021/06/19 10:01:53;;;;;;;21.23;11.63;;;34.00;95.50;;;;;;5031879;28;20447;-55
2021/06/19 10:04:21;;;;;;;17.47;11.00;;;33.30;96.20;;;;;;5032560;28;20496;-54
2021/06/19 10:06:48;;;;;;;23.30;10.10;;;32.40;99.40;;;;;;5032528;28;20519;-54
2021/06/19 10:09:15;;;;;;;15.03;9.83;;;32.00;98.90;;;;;;5032252;28;20499;-54
2021/06/19 10:11:47;;;;;;;15.07;10.50;;;32.30;99.90;;;;;;5032052;28;20448;-55
2021/06/19 10:14:18;;;;;;;13.93;11.23;;;31.90;99.90;;;;;;5031872;28;20827;-54
2021/06/19 10:16:47;;;;;;;15.80;11.23;;;32.40;99.20;;;;;;5031847;28;20866;-54
2021/06/19 10:19:14;;;;;;;19.03;11.50;;;32.70;99.90;;;;;;5032403;28;20448;-54
2021/06/19 10:21:43;;;;;;;19.63;10.90;;;31.70;99.90;;;;;;5031979;28;20451;-55
2021/06/19 10:24:13;;;;;;;23.23;12.50;;;31.30;99.90;;;;;;5031560;28;20569;-54
2021/06/19 10:26:41;;;;;;;17.70;11.83;;;31.20;99.90;;;;;;5031778;28;21106;-54
2021/06/19 10:29:12;;;;;;;17.20;11.47;;;30.90;99.90;;;;;;5031840;28;20536;-54
2021/06/19 10:31:42;;;;;;;24.47;14.90;;;31.20;99.90;;;;;;5031807;28;20445;-54
2021/06/19 10:34:26;;;;;;;20.47;11.10;;;31.90;99.90;;;;;;5030725;28;20452;-56
2021/06/19 10:36:55;;;;;;;14.30;11.10;;;32.40;99.90;;;;;;5031453;28;20901;-55
2021/06/19 10:39:39;;;;;;;22.90;12.13;;;32.40;97.70;;;;;;5025375;28;20444;-55
2021/06/19 10:42:06;;;;;;;15.60;11.20;;;32.50;99.70;;;;;;5030712;28;20954;-54
2021/06/19 10:44:52;;;;;;;19.40;10.83;;;31.70;99.90;;;;;;5031226;28;21075;-56
2021/06/19 10:47:20;;;;;;;18.43;11.70;;;31.50;99.90;;;;;;5031662;28;20443;-56
2021/06/19 10:49:48;;;;;;;20.83;10.87;;;31.50;99.90;;;;;;5031422;28;20448;-55
2021/06/19 10:52:23;;;;;;;15.17;10.67;;;31.20;99.90;;;;;;5030781;28;20934;-55
2021/06/19 10:55:22;;;;;;;18.93;10.47;;;31.10;99.90;;;;;;5011633;28;20437;-54
2021/06/19 10:57:51;;;;;;;23.00;11.97;;;31.70;99.90;;;;;;5011614;28;20832;-54
2021/06/19 11:00:31;;;;;;;15.63;11.00;;;31.30;99.90;;;;;;5011626;28;20489;-54
2021/06/19 11:02:59;;;;;;;20.60;11.33;;;31.30;99.90;;;;;;5017667;28;21005;-55
2021/06/19 11:05:53;;;;;;;14.13;10.60;;;31.20;99.90;;;;;;5031305;28;20510;-55
2021/06/19 11:08:21;;;;;;;17.10;11.63;;;30.80;99.90;;;;;;5029305;28;20717;-54
2021/06/19 11:10:56;;;;;;;14.93;10.70;;;30.50;99.90;;;;;;5031196;28;20444;-55
2021/06/19 11:13:45;;;;;;;14.97;10.87;;;30.70;99.90;;;;;;5030054;28;20444;-54
2021/06/19 11:16:53;;;;;;;19.77;10.50;;;31.20;99.90;;;;;;5030675;28;20468;-54
2021/06/19 11:19:44;;;;;;;11.73;10.53;;;31.20;99.90;;;;;;5030632;28;20502;-55
2021/06/19 11:22:29;;;;;;;19.50;11.63;;;31.40;99.90;;;;;;5030178;28;20449;-53
2021/06/19 11:25:17;;;;;;;15.83;11.03;;;30.90;99.90;;;;;;5030755;28;20484;-53
2021/06/19 11:27:56;;;;;;;15.73;10.87;;;31.10;99.90;;;;;;5031360;28;20544;-54
2021/06/19 11:30:46;;;;;;;15.00;10.47;;;31.10;99.90;;;;;;5030911;28;20453;-54
2021/06/19 11:33:49;;;;;;;15.90;10.97;;;31.70;99.90;;;;;;5030900;28;20502;-53
2021/06/19 11:36:41;;;;;;;18.70;10.47;;;32.30;99.90;;;;;;5030972;28;20825;-56
2021/06/19 11:39:14;;;;;;;14.23;10.60;;;31.80;99.90;;;;;;5031066;28;20514;-53
2021/06/19 11:41:44;;;;;;;11.30;9.90;;;31.60;99.90;;;;;;5012662;28;20453;-53
2021/06/19 11:44:14;;;;;;;15.27;10.80;;;31.40;99.90;;;;;;5030111;28;20476;-55
2021/06/19 11:46:51;;;;;;;16.93;9.73;;;31.70;99.90;;;;;;5031039;28;20511;-54
2021/06/19 11:49:18;;;;;;;13.50;10.40;;;31.50;99.90;;;;;;5031156;28;20526;-55
2021/06/19 11:51:50;;;;;;;11.40;9.97;;;31.50;99.90;;;;;;5030595;28;20510;-56
2021/06/19 11:54:17;;;;;;;16.20;10.03;;;31.20;99.90;;;;;;5032426;28;20456;-54
2021/06/19 11:56:45;;;;;;;14.13;11.00;;;31.10;99.90;;;;;;5034580;28;20525;-53
2021/06/19 11:59:13;;;;;;;11.07;9.60;;;31.10;99.90;;;;;;5034954;28;20452;-53
2021/06/19 12:01:43;;;;;;;16.63;9.17;;;31.10;99.90;;;;;;5034245;28;20456;-54
2021/06/19 12:04:12;;;;;;;12.93;9.30;;;31.30;99.90;;;;;;5034621;28;20483;-53
2021/06/19 12:06:40;;;;;;;11.87;10.23;;;31.30;99.90;;;;;;5034707;28;20917;-54
2021/06/19 12:09:11;;;;;;;13.00;9.27;;;31.00;99.90;;;;;;5021661;28;20872;-53
2021/06/19 12:11:42;;;;;;;15.40;10.30;;;31.20;99.90;;;;;;5034179;28;20448;-54
2021/06/19 12:14:21;;;;;;;16.33;9.77;;;31.30;99.90;;;;;;5034583;28;20472;-53
2021/06/19 12:16:51;;;;;;;12.03;10.00;;;31.10;99.90;;;;;;5027703;28;20469;-54
2021/06/19 12:19:19;;;;;;;14.00;9.93;;;31.10;99.90;;;;;;5014788;28;20453;-54
2021/06/19 12:21:47;;;;;;;11.23;9.83;;;31.10;99.90;;;;;;5029850;28;20452;-53
2021/06/19 12:24:30;;;;;;;12.10;9.80;;;31.10;99.90;;;;;;5033757;28;20484;-53
2021/06/19 12:26:59;;;;;;;11.93;9.70;;;31.00;99.90;;;;;;5034437;28;20476;-55
2021/06/19 12:29:53;;;;;;;16.60;9.00;;;31.10;99.90;;;;;;5034316;28;20499;-54
2021/06/19 12:32:41;;;;;;;16.97;11.30;;;31.40;99.90;;;;;;5015393;28;20468;-55
2021/06/19 12:35:11;;;;;;;16.27;10.93;;;31.50;99.90;;;;;;5034186;28;20559;-53
2021/06/19 12:37:39;;;;;;;11.37;10.17;;;31.20;99.90;;;;;;5033744;28;20559;-54
2021/06/19 12:40:10;;;;;;;15.73;9.80;;;31.30;99.90;;;;;;5033935;28;20938;-54
2021/06/19 12:42:45;;;;;;;13.60;9.60;;;31.10;99.90;;;;;;5033978;28;20456;-53
2021/06/19 12:45:15;;;;;;;12.70;9.57;;;31.10;99.90;;;;;;5033631;28;20492;-54
2021/06/19 12:47:44;;;;;;;11.90;9.63;;;31.10;99.90;;;;;;5033688;28;20452;-54
2021/06/19 12:50:14;;;;;;;9.57;8.60;;;31.10;99.90;;;;;;5033464;28;20449;-55